Estevan Airport
CYEN : now visible

Airfield :











YOU CAN JOIN US ON...

 
LOGIN :

Register | Disclaimer

   EN    FR    IT 

 









Legend :    VFR   Marginal VFR   IFR   Intensive IFR   Very Intensive IFR
Visi :
Ceiling :
>= 8 km
>= 3000ft
5 to 8 km
1000 to 3000 ft
1500m to 5 km
500 to 1000 ft
800 to 1500m
200 to 500 ft
< 800m
< 200 ft
Symbols :   Thunderstorms  Fog  Heavy snow  Heavy precipitations  Wind > 20 kt






- Airport Elevation : 1905 ft
- IATA code : YEN


CYEN - Estevan

CURRENT METAR :
  • 180443Z AUTO 06009KT 9SM -RA FEW007 OVC060 09/09 A2977 RMK SLP097

EXPIRED METARs :
  • 180400Z AUTO 03008KT 9SM -RA OVC066 09/09 A2979 RMK PCPN 0.8MM PAST HR SLP102
  • 180313Z AUTO 01011KT 6SM -RA BR OVC060 09/09 A2979 RMK SLP102
  • 180227Z AUTO 01008KT 5SM -RA BR FEW008 OVC050 10/09 A2979 RMK PRESRR SLP104
  • 180206Z AUTO 02010KT 9SM -RA FEW008 OVC055 10/09 A2978 RMK PRESRR SLP098
  • 180149Z AUTO 03011KT 9SM OVC060 10/09 A2976 RMK SLP093
  • 180100Z AUTO 04011KT 9SM -RA OVC060 10/09 A2975 RMK SLP091
  • 180025Z AUTO 04011G16KT 9SM -RA OVC066 11/09 A2975 RMK SLP090
  • 180000Z AUTO 05011G16KT 9SM FEW009 OVC060 11/09 A2975 RMK SLP090

Expired Forecast.
CZWG FIR / North America



MET'MAP, your aeronautical weather chart ! - Copyright ORBIFLY December 2007 - Disclaimer

ORBIFLY MET'MAP TEAM :

Programming & Development : Alexandra Zaïnal
Original concept : Baudouin d'Aumeries
Technical & hardware support : Manuel Goepfert
Assistance : Marc-Olivier Méhu




SOURCES & CREDITS :

   NOAA       Earth
Advisory